createdAt,value
2022-09-23T00:01:13.372Z,9.90
2022-09-23T00:04:00.425Z,9.90
2022-09-23T00:06:47.259Z,9.80
2022-09-23T00:09:34.397Z,9.90
2022-09-23T00:12:21.501Z,9.80
2022-09-23T00:15:10.358Z,10.10
2022-09-23T00:17:57.874Z,9.80
2022-09-23T00:20:44.722Z,9.80
2022-09-23T00:23:32.202Z,9.80
2022-09-23T00:26:21.057Z,10.20
2022-09-23T00:29:07.889Z,9.70
2022-09-23T00:31:54.782Z,9.70
2022-09-23T00:34:44.155Z,9.70
2022-09-23T00:37:31.282Z,9.70
2022-09-23T00:40:18.597Z,9.70
2022-09-23T00:43:05.771Z,9.70
2022-09-23T00:45:54.076Z,9.70
2022-09-23T00:48:42.295Z,9.70
2022-09-23T00:51:34.487Z,9.70
2022-09-23T00:54:23.914Z,9.70
2022-09-23T00:57:12.099Z,9.70
2022-09-23T00:59:59.402Z,9.70
2022-09-23T01:02:47.159Z,9.70
2022-09-23T01:05:34.139Z,9.60
2022-09-23T01:08:22.716Z,10.30
2022-09-23T01:11:35.820Z,9.70
2022-09-23T01:14:36.404Z,9.60
2022-09-23T01:17:32.741Z,9.60
2022-09-23T01:20:38.516Z,10.40
2022-09-23T01:23:54.829Z,9.50
2022-09-23T01:27:05.380Z,9.50
2022-09-23T01:30:27.812Z,9.50
2022-09-23T01:33:23.423Z,9.50
2022-09-23T01:36:19.744Z,9.50
2022-09-23T01:39:11.749Z,9.50
2022-09-23T01:42:04.174Z,9.40
2022-09-23T01:44:56.452Z,9.40
2022-09-23T01:47:51.604Z,9.40
2022-09-23T01:50:58.368Z,9.40
2022-09-23T01:53:48.824Z,10.40
2022-09-23T01:56:39.640Z,9.40
2022-09-23T01:59:33.332Z,9.40
2022-09-23T02:02:27.409Z,9.40
2022-09-23T02:05:18.309Z,9.40
2022-09-23T02:08:09.501Z,9.40
2022-09-23T02:11:00.033Z,9.40
2022-09-23T02:13:53.241Z,9.30
2022-09-23T02:16:46.638Z,9.30
2022-09-23T02:19:36.091Z,9.30
2022-09-23T02:22:27.797Z,9.30
2022-09-23T02:25:16.453Z,9.30
2022-09-23T02:28:09.653Z,9.20
2022-09-23T02:31:06.864Z,9.20
2022-09-23T02:33:57.673Z,9.10
2022-09-23T02:36:52.073Z,9.10
2022-09-23T02:39:49.386Z,9.10
2022-09-23T02:42:48.474Z,9.10
2022-09-23T02:45:37.179Z,9.00
2022-09-23T02:48:28.767Z,9.00
2022-09-23T02:51:15.826Z,8.90
2022-09-23T02:54:04.601Z,8.90
2022-09-23T02:56:52.661Z,8.90
2022-09-23T02:59:40.944Z,8.90
2022-09-23T03:02:55.953Z,8.90
2022-09-23T03:05:50.047Z,8.80
2022-09-23T03:08:47.299Z,8.80
2022-09-23T03:11:38.132Z,8.90
2022-09-23T03:14:30.202Z,8.80
2022-09-23T03:17:25.215Z,8.80
2022-09-23T03:20:17.298Z,8.80
2022-09-23T03:23:09.262Z,8.80
2022-09-23T03:25:59.800Z,9.60
2022-09-23T03:28:47.099Z,8.80
2022-09-23T03:31:35.832Z,8.80
2022-09-23T03:34:27.711Z,8.80
2022-09-23T03:37:19.661Z,8.80
2022-09-23T03:40:12.254Z,8.80
2022-09-23T03:43:00.574Z,8.80
2022-09-23T03:45:47.476Z,8.70
2022-09-23T03:48:34.450Z,8.80
2022-09-23T03:51:23.209Z,8.70
2022-09-23T03:54:10.116Z,8.70
2022-09-23T03:56:57.467Z,8.70
2022-09-23T03:59:44.358Z,8.70
2022-09-23T04:02:31.647Z,8.70
2022-09-23T04:05:18.730Z,8.60
2022-09-23T04:08:06.211Z,8.70
2022-09-23T04:10:58.243Z,8.60
2022-09-23T04:13:45.091Z,8.60
2022-09-23T04:16:32.069Z,8.60
2022-09-23T04:19:18.979Z,8.50
2022-09-23T04:22:06.775Z,8.50
2022-09-23T04:24:54.282Z,8.40
2022-09-23T04:27:41.120Z,8.40
2022-09-23T04:30:28.019Z,8.40
2022-09-23T04:33:15.716Z,8.40
2022-09-23T04:36:02.781Z,8.40
2022-09-23T04:38:50.229Z,8.40
2022-09-23T04:41:37.764Z,8.40
2022-09-23T04:44:27.260Z,8.40
2022-09-23T04:47:14.426Z,8.40
2022-09-23T04:50:01.344Z,8.50
2022-09-23T04:52:48.202Z,8.50
2022-09-23T04:55:35.080Z,8.50
2022-09-23T04:58:23.413Z,8.50
2022-09-23T05:01:11.976Z,8.50
2022-09-23T05:04:01.565Z,8.50
2022-09-23T05:06:48.410Z,8.60
2022-09-23T05:09:35.235Z,8.50
2022-09-23T05:12:22.069Z,8.50
2022-09-23T05:15:09.680Z,8.50
2022-09-23T05:17:57.517Z,8.40
2022-09-23T05:20:44.364Z,8.40
2022-09-23T05:23:31.317Z,8.40
2022-09-23T05:26:18.134Z,8.50
2022-09-23T05:29:05.077Z,8.50
2022-09-23T05:31:52.593Z,8.50
2022-09-23T05:34:39.558Z,8.50
2022-09-23T05:37:26.353Z,8.50
2022-09-23T05:40:13.377Z,8.50
2022-09-23T05:43:00.326Z,8.50
2022-09-23T05:45:47.138Z,8.50
2022-09-23T05:48:35.837Z,8.60
2022-09-23T05:51:28.761Z,8.70
2022-09-23T05:54:17.850Z,8.70
2022-09-23T05:57:05.300Z,8.90
2022-09-23T05:59:52.154Z,9.00
2022-09-23T06:02:39.033Z,9.10
2022-09-23T06:05:26.511Z,9.10
2022-09-23T06:08:13.618Z,9.20
2022-09-23T06:11:06.311Z,9.30
2022-09-23T06:13:55.287Z,9.40
2022-09-23T06:16:42.627Z,9.50
2022-09-23T06:19:29.466Z,9.50
2022-09-23T06:22:17.856Z,9.60
2022-09-23T06:25:05.324Z,9.80
2022-09-23T06:27:53.783Z,9.80
2022-09-23T06:30:41.659Z,9.80
2022-09-23T06:33:36.257Z,9.90
2022-09-23T06:36:39.609Z,10.30
2022-09-23T06:39:30.419Z,10.10
2022-09-23T06:42:17.271Z,10.20
2022-09-23T06:45:04.593Z,10.40
2022-09-23T06:47:55.310Z,10.50
2022-09-23T06:50:42.188Z,10.60
2022-09-23T06:53:31.220Z,10.60
2022-09-23T06:56:21.165Z,10.80
2022-09-23T06:59:10.326Z,10.90
2022-09-23T07:01:57.426Z,11.10
2022-09-23T07:04:44.373Z,11.10
2022-09-23T07:07:31.223Z,11.20
2022-09-23T07:10:18.308Z,11.30
2022-09-23T07:13:05.777Z,11.30
2022-09-23T07:15:53.844Z,11.40
2022-09-23T07:18:41.861Z,11.40
2022-09-23T07:21:28.701Z,11.40
2022-09-23T07:24:15.888Z,11.50
2022-09-23T07:27:02.813Z,11.60
2022-09-23T07:29:50.994Z,11.70
2022-09-23T07:32:47.185Z,11.70
2022-09-23T07:35:38.885Z,11.80
2022-09-23T07:38:29.070Z,11.80
2022-09-23T07:41:18.185Z,11.80
2022-09-23T07:44:05.353Z,11.80
2022-09-23T07:46:52.862Z,11.90
2022-09-23T07:49:40.286Z,12.10
2022-09-23T07:52:27.123Z,12.10
2022-09-23T07:55:17.609Z,12.30
2022-09-23T07:58:07.078Z,12.30
2022-09-23T08:00:54.003Z,12.30
2022-09-23T08:03:43.042Z,12.40
2022-09-23T08:06:29.917Z,12.50
2022-09-23T08:09:18.924Z,12.50
2022-09-23T08:12:05.934Z,12.60
2022-09-23T08:14:52.782Z,12.70
2022-09-23T08:17:39.630Z,12.70
2022-09-23T08:20:47.346Z,12.90
2022-09-23T08:23:34.731Z,13.00
2022-09-23T08:26:22.569Z,13.10
2022-09-23T08:29:12.222Z,13.10
2022-09-23T08:31:59.550Z,13.30
2022-09-23T08:34:46.376Z,13.50
2022-09-23T08:37:33.846Z,13.70
2022-09-23T08:40:20.917Z,13.90
2022-09-23T08:43:15.775Z,14.10
2022-09-23T08:46:06.104Z,14.40
2022-09-23T08:48:54.550Z,14.70
2022-09-23T08:51:46.240Z,14.80
2022-09-23T08:54:33.744Z,14.90
2022-09-23T08:57:33.511Z,15.00
2022-09-23T09:00:22.843Z,15.10
2022-09-23T09:03:20.671Z,15.20
2022-09-23T09:06:12.955Z,15.20
2022-09-23T09:09:02.460Z,15.30
2022-09-23T09:11:53.811Z,15.40
2022-09-23T09:14:47.103Z,15.50
2022-09-23T09:17:37.425Z,15.50
2022-09-23T09:20:34.360Z,15.50
2022-09-23T09:23:23.217Z,15.50
2022-09-23T09:26:15.876Z,15.60
2022-09-23T09:29:23.775Z,15.60
2022-09-23T09:32:32.881Z,15.80
2022-09-23T09:35:34.260Z,15.90
2022-09-23T09:38:21.155Z,16.00
2022-09-23T09:41:13.850Z,15.90
2022-09-23T09:44:09.321Z,16.10
2022-09-23T09:47:14.375Z,16.10
2022-09-23T09:50:06.764Z,16.20
2022-09-23T09:53:21.003Z,16.20
2022-09-23T09:56:09.945Z,16.20
2022-09-23T09:59:01.351Z,16.30
2022-09-23T10:01:48.873Z,16.40
2022-09-23T10:04:35.839Z,16.30
2022-09-23T10:07:26.471Z,16.40
2022-09-23T10:10:31.739Z,16.40
2022-09-23T10:13:20.402Z,16.50
2022-09-23T10:16:08.629Z,16.50
2022-09-23T10:18:56.344Z,16.60
2022-09-23T10:21:43.512Z,16.70
2022-09-23T10:24:33.521Z,16.80
2022-09-23T10:27:28.321Z,16.90
2022-09-23T10:30:21.193Z,17.00
2022-09-23T10:33:26.069Z,17.00
2022-09-23T10:36:16.146Z,17.00
2022-09-23T10:39:23.098Z,17.10
2022-09-23T10:42:37.466Z,17.30
2022-09-23T10:45:45.320Z,17.30
2022-09-23T10:48:44.473Z,17.40
2022-09-23T10:51:41.307Z,17.60
2022-09-23T10:54:39.628Z,17.80
2022-09-23T10:57:40.853Z,17.80
2022-09-23T11:00:37.016Z,17.80
2022-09-23T11:03:53.180Z,17.80
2022-09-23T11:06:53.041Z,17.70
2022-09-23T11:09:53.123Z,17.80
2022-09-23T11:12:46.405Z,17.80
2022-09-23T11:15:43.678Z,17.90
2022-09-23T11:18:48.022Z,17.80
2022-09-23T11:21:49.584Z,18.00
2022-09-23T11:25:03.816Z,18.00
2022-09-23T11:28:08.538Z,18.10
2022-09-23T11:31:05.823Z,18.20
2022-09-23T11:34:08.004Z,18.30
2022-09-23T11:37:01.469Z,18.40
2022-09-23T11:39:52.558Z,18.40
2022-09-23T11:42:51.590Z,18.40
2022-09-23T11:45:44.104Z,18.40
2022-09-23T11:48:36.300Z,18.40
2022-09-23T11:51:28.937Z,18.50
2022-09-23T11:54:23.793Z,18.60
2022-09-23T11:57:16.713Z,18.60
2022-09-23T12:00:06.291Z,18.60
2022-09-23T12:03:05.870Z,18.60
2022-09-23T12:06:00.687Z,18.60
2022-09-23T12:08:50.296Z,18.70
2022-09-23T12:11:45.958Z,18.70
2022-09-23T12:14:40.112Z,18.70
2022-09-23T12:17:42.210Z,18.80
2022-09-23T12:20:59.026Z,19.00
2022-09-23T12:24:02.421Z,19.20
2022-09-23T12:26:52.347Z,19.10
2022-09-23T12:29:40.912Z,19.00
2022-09-23T12:32:28.171Z,19.00
2022-09-23T12:35:23.780Z,19.00
2022-09-23T12:38:19.017Z,19.00
2022-09-23T12:41:23.421Z,19.00
2022-09-23T12:44:27.830Z,19.00
2022-09-23T12:47:37.558Z,18.80
2022-09-23T12:50:47.023Z,18.80
2022-09-23T12:53:56.854Z,18.70
2022-09-23T12:57:08.875Z,18.70
2022-09-23T12:59:58.840Z,18.70
2022-09-23T13:03:12.218Z,18.70
2022-09-23T13:06:19.717Z,18.60
2022-09-23T13:09:12.506Z,18.50
2022-09-23T13:12:02.283Z,18.50
2022-09-23T13:14:53.205Z,18.50
2022-09-23T13:17:40.809Z,18.60
2022-09-23T13:20:37.531Z,18.60
2022-09-23T13:23:25.954Z,18.60
2022-09-23T13:26:14.248Z,18.70
2022-09-23T13:29:03.735Z,18.70
2022-09-23T13:31:51.239Z,18.70
2022-09-23T13:34:40.750Z,18.70
2022-09-23T13:37:38.139Z,18.70
2022-09-23T13:40:27.257Z,18.60
2022-09-23T13:43:21.572Z,18.60
2022-09-23T13:46:12.445Z,18.50
2022-09-23T13:48:59.461Z,18.40
2022-09-23T13:51:46.958Z,18.30
2022-09-23T13:54:45.063Z,18.20
2022-09-23T13:57:33.698Z,18.20
2022-09-23T14:00:22.454Z,18.30
2022-09-23T14:03:25.573Z,18.40
2022-09-23T14:06:15.153Z,18.50
2022-09-23T14:09:02.825Z,18.50
2022-09-23T14:11:50.894Z,18.60
2022-09-23T14:14:39.690Z,18.60
2022-09-23T14:17:26.620Z,18.50
2022-09-23T14:20:15.179Z,18.40
2022-09-23T14:23:05.812Z,18.30
2022-09-23T14:25:54.825Z,18.30
2022-09-23T14:28:41.696Z,18.20
2022-09-23T14:31:29.066Z,18.20
2022-09-23T14:34:39.143Z,18.20
2022-09-23T14:37:57.014Z,18.00
2022-09-23T14:40:51.426Z,17.90
2022-09-23T14:43:39.133Z,17.80
2022-09-23T14:46:27.368Z,17.70
2022-09-23T14:49:16.676Z,17.60
2022-09-23T14:52:06.137Z,17.60
2022-09-23T14:54:53.664Z,17.50
2022-09-23T14:57:42.053Z,17.50
2022-09-23T15:00:30.610Z,17.40
2022-09-23T15:03:20.215Z,17.40
2022-09-23T15:06:08.935Z,17.40
2022-09-23T15:08:55.912Z,17.30
2022-09-23T15:11:42.874Z,17.30
2022-09-23T15:14:38.263Z,17.20
2022-09-23T15:17:31.676Z,17.20
2022-09-23T15:20:22.491Z,17.20
2022-09-23T15:23:32.309Z,17.10
2022-09-23T15:26:21.805Z,17.10
2022-09-23T15:29:09.212Z,17.00
2022-09-23T15:31:56.283Z,17.00
2022-09-23T15:34:43.798Z,17.00
2022-09-23T15:37:35.502Z,17.00
2022-09-23T15:40:25.173Z,16.80
2022-09-23T15:43:20.686Z,16.90
2022-09-23T15:46:13.591Z,16.80
2022-09-23T15:49:04.165Z,16.70
2022-09-23T15:51:52.449Z,16.70
2022-09-23T15:54:39.343Z,16.60
2022-09-23T15:57:26.200Z,16.60
2022-09-23T16:00:15.175Z,16.50
2022-09-23T16:03:03.423Z,16.50
2022-09-23T16:05:50.441Z,16.40
2022-09-23T16:08:38.246Z,16.40
2022-09-23T16:11:28.990Z,16.30
2022-09-23T16:14:17.442Z,16.20
2022-09-23T16:17:04.282Z,16.10
2022-09-23T16:19:51.115Z,16.00
2022-09-23T16:22:38.587Z,16.00
2022-09-23T16:25:28.410Z,16.00
2022-09-23T16:28:15.291Z,15.90
2022-09-23T16:31:02.512Z,15.80
2022-09-23T16:33:50.456Z,15.60
2022-09-23T16:36:40.240Z,15.70
2022-09-23T16:39:27.113Z,15.40
2022-09-23T16:42:14.602Z,15.40
2022-09-23T16:45:01.414Z,15.30
2022-09-23T16:47:50.460Z,15.30
2022-09-23T16:50:37.335Z,15.00
2022-09-23T16:53:25.589Z,15.10
2022-09-23T16:56:12.441Z,15.00
2022-09-23T16:59:00.059Z,14.90
2022-09-23T17:02:05.860Z,14.90
2022-09-23T17:04:52.778Z,14.80
2022-09-23T17:07:39.645Z,14.90
2022-09-23T17:10:26.506Z,14.80
2022-09-23T17:13:14.860Z,14.70
2022-09-23T17:16:02.833Z,14.70
2022-09-23T17:18:49.730Z,14.60
2022-09-23T17:21:37.022Z,14.60
2022-09-23T17:24:23.868Z,14.70
2022-09-23T17:27:10.855Z,14.60
2022-09-23T17:29:58.017Z,14.60
2022-09-23T17:32:46.351Z,14.50
2022-09-23T17:35:33.204Z,14.50
2022-09-23T17:38:23.904Z,14.60
2022-09-23T17:41:14.676Z,14.50
2022-09-23T17:44:01.832Z,14.60
2022-09-23T17:46:48.668Z,14.50
2022-09-23T17:49:36.136Z,14.50
2022-09-23T17:52:22.974Z,14.50
2022-09-23T17:55:10.451Z,14.40
2022-09-23T17:57:57.304Z,14.30
2022-09-23T18:00:45.630Z,14.30
2022-09-23T18:03:32.540Z,14.30
2022-09-23T18:06:22.170Z,14.30
2022-09-23T18:09:09.644Z,14.20
2022-09-23T18:11:56.981Z,14.20
2022-09-23T18:14:44.481Z,14.20
2022-09-23T18:17:31.324Z,14.10
2022-09-23T18:20:18.165Z,14.10
2022-09-23T18:23:05.653Z,14.10
2022-09-23T18:25:52.473Z,14.10
2022-09-23T18:28:39.369Z,14.20
2022-09-23T18:31:27.161Z,14.20
2022-09-23T18:34:15.972Z,14.20
2022-09-23T18:37:02.893Z,14.30
2022-09-23T18:39:50.369Z,14.20
2022-09-23T18:42:39.461Z,14.20
2022-09-23T18:45:26.333Z,14.20
2022-09-23T18:48:33.713Z,14.30
2022-09-23T18:51:23.227Z,14.30
2022-09-23T18:54:10.139Z,14.30
2022-09-23T18:56:58.406Z,14.30
2022-09-23T18:59:46.489Z,14.20
2022-09-23T19:02:33.358Z,14.10
2022-09-23T19:05:20.245Z,14.10
2022-09-23T19:08:08.042Z,14.10
2022-09-23T19:10:55.266Z,14.10
2022-09-23T19:13:42.845Z,14.00
2022-09-23T19:16:30.959Z,14.10
2022-09-23T19:19:17.845Z,14.10
2022-09-23T19:22:04.701Z,14.10
2022-09-23T19:24:51.561Z,14.20
2022-09-23T19:27:39.358Z,14.20
2022-09-23T19:30:26.806Z,14.20
2022-09-23T19:33:13.679Z,14.20
2022-09-23T19:36:00.966Z,14.20
2022-09-23T19:38:48.156Z,14.20
2022-09-23T19:41:35.094Z,14.30
2022-09-23T19:44:24.236Z,14.30
2022-09-23T19:47:14.723Z,14.20
2022-09-23T19:50:01.642Z,14.20
2022-09-23T19:52:50.914Z,14.20
2022-09-23T19:55:37.830Z,14.20
2022-09-23T19:58:25.508Z,14.20
2022-09-23T20:01:13.027Z,14.10
2022-09-23T20:04:01.287Z,14.10
2022-09-23T20:06:48.721Z,14.10
2022-09-23T20:09:35.601Z,14.10
2022-09-23T20:12:22.965Z,14.10
2022-09-23T20:15:10.899Z,14.10
2022-09-23T20:17:57.763Z,14.00
2022-09-23T20:20:53.413Z,14.00
2022-09-23T20:23:40.566Z,14.00
2022-09-23T20:26:45.542Z,14.00
2022-09-23T20:29:32.382Z,14.00
2022-09-23T20:32:19.541Z,13.90
2022-09-23T20:35:07.154Z,14.00
2022-09-23T20:37:54.608Z,13.90
2022-09-23T20:40:41.489Z,13.90
2022-09-23T20:43:31.838Z,13.80
2022-09-23T20:46:18.748Z,13.90
2022-09-23T20:49:07.061Z,13.80
2022-09-23T20:51:53.905Z,13.80
2022-09-23T20:54:41.836Z,13.80
2022-09-23T20:57:30.789Z,13.90
2022-09-23T21:00:17.766Z,13.80
2022-09-23T21:03:04.605Z,13.80
2022-09-23T21:05:51.603Z,13.80
2022-09-23T21:08:38.526Z,13.80
2022-09-23T21:11:26.478Z,13.80
2022-09-23T21:14:13.454Z,13.70
2022-09-23T21:17:00.275Z,13.70
2022-09-23T21:19:47.226Z,13.70
2022-09-23T21:22:34.663Z,13.70
2022-09-23T21:25:29.765Z,13.70
2022-09-23T21:28:18.096Z,13.70
2022-09-23T21:31:07.341Z,13.70
2022-09-23T21:33:55.140Z,13.70
2022-09-23T21:36:43.373Z,13.70
2022-09-23T21:39:30.191Z,13.70
2022-09-23T21:42:17.027Z,13.70
2022-09-23T21:45:05.600Z,13.80
2022-09-23T21:47:52.491Z,13.80
2022-09-23T21:50:40.187Z,13.90
2022-09-23T21:53:28.916Z,13.90
2022-09-23T21:56:20.723Z,13.90
2022-09-23T21:59:08.294Z,14.00
2022-09-23T22:01:55.744Z,14.00
2022-09-23T22:04:42.717Z,13.90
2022-09-23T22:07:31.187Z,14.00
2022-09-23T22:10:18.047Z,14.00
2022-09-23T22:13:10.557Z,14.00
2022-09-23T22:16:01.730Z,14.00
2022-09-23T22:18:51.201Z,14.00
2022-09-23T22:21:39.676Z,14.10
2022-09-23T22:24:26.993Z,14.10
2022-09-23T22:27:16.236Z,14.00
2022-09-23T22:30:21.737Z,14.00
2022-09-23T22:33:08.676Z,14.00
2022-09-23T22:36:01.352Z,14.00
2022-09-23T22:38:58.878Z,14.00
2022-09-23T22:41:47.164Z,14.00
2022-09-23T22:44:34.020Z,14.00
2022-09-23T22:47:20.962Z,14.00
2022-09-23T22:50:09.188Z,14.00
2022-09-23T22:52:57.638Z,13.90
2022-09-23T22:55:44.496Z,13.90
2022-09-23T22:58:32.877Z,13.90
2022-09-23T23:01:19.935Z,14.00
2022-09-23T23:04:07.377Z,13.90
2022-09-23T23:06:54.322Z,13.90
2022-09-23T23:09:41.795Z,13.90
2022-09-23T23:12:28.614Z,13.90
2022-09-23T23:15:15.600Z,13.90
2022-09-23T23:18:02.457Z,13.80
2022-09-23T23:20:49.307Z,13.80
2022-09-23T23:23:38.054Z,13.80
2022-09-23T23:26:27.778Z,13.80
2022-09-23T23:29:16.689Z,13.80
2022-09-23T23:32:04.330Z,13.80
2022-09-23T23:34:51.154Z,13.80
2022-09-23T23:37:38.086Z,13.80
2022-09-23T23:40:27.092Z,13.70
2022-09-23T23:43:14.639Z,13.70
2022-09-23T23:46:01.501Z,13.70
2022-09-23T23:48:48.385Z,13.60
2022-09-23T23:51:35.227Z,13.60
2022-09-23T23:54:22.074Z,13.60
2022-09-23T23:57:09.058Z,13.50
2022-09-23T23:59:56.510Z,13.50
